Map

Track Data

SID SEASON NUMBER BASIN SUBBASIN NAME ISO_TIME NATURE LAT LON WMO_WIND WMO_PRES WMO_AGENCY TRACK_TYPE DIST2LAND LANDFALL IFLAG USA_AGENCY USA_ATCF_ID USA_LAT USA_LON USA_RECORD USA_STATUS USA_WIND USA_PRES USA_SSHS USA_R34_NE USA_R34_SE USA_R34_SW USA_R34_NW USA_R50_NE USA_R50_SE USA_R50_SW USA_R50_NW USA_R64_NE USA_R64_SE USA_R64_SW USA_R64_NW USA_POCI USA_ROCI USA_RMW USA_EYE TOKYO_LAT TOKYO_LON TOKYO_GRADE TOKYO_WIND TOKYO_PRES TOKYO_R50_DIR TOKYO_R50_LONG TOKYO_R50_SHORT TOKYO_R30_DIR TOKYO_R30_LONG TOKYO_R30_SHORT TOKYO_LAND CMA_LAT CMA_LON CMA_CAT CMA_WIND CMA_PRES HKO_LAT HKO_LON HKO_CAT HKO_WIND HKO_PRES NEWDELHI_LAT NEWDELHI_LON NEWDELHI_GRADE NEWDELHI_WIND NEWDELHI_PRES NEWDELHI_CI NEWDELHI_DP NEWDELHI_POCI REUNION_LAT REUNION_LON REUNION_TYPE REUNION_WIND REUNION_PRES REUNION_TNUM REUNION_CI REUNION_RMW REUNION_R34_NE REUNION_R34_SE REUNION_R34_SW REUNION_R34_NW REUNION_R50_NE REUNION_R50_SE REUNION_R50_SW REUNION_R50_NW REUNION_R64_NE REUNION_R64_SE REUNION_R64_SW REUNION_R64_NW BOM_LAT BOM_LON BOM_TYPE BOM_WIND BOM_PRES BOM_TNUM BOM_CI BOM_RMW BOM_R34_NE BOM_R34_SE BOM_R34_SW BOM_R34_NW BOM_R50_NE BOM_R50_SE BOM_R50_SW BOM_R50_NW BOM_R64_NE BOM_R64_SE BOM_R64_SW BOM_R64_NW BOM_ROCI BOM_POCI BOM_EYE BOM_POS_METHOD BOM_PRES_METHOD NADI_LAT NADI_LON NADI_CAT NADI_WIND NADI_PRES WELLINGTON_LAT WELLINGTON_LON WELLINGTON_WIND WELLINGTON_PRES DS824_LAT DS824_LON DS824_STAGE DS824_WIND DS824_PRES TD9636_LAT TD9636_LON TD9636_STAGE TD9636_WIND TD9636_PRES TD9635_LAT TD9635_LON TD9635_WIND TD9635_PRES TD9635_ROCI NEUMANN_LAT NEUMANN_LON NEUMANN_CLASS NEUMANN_WIND NEUMANN_PRES MLC_LAT MLC_LON MLC_CLASS MLC_WIND MLC_PRES USA_GUST BOM_GUST BOM_GUST_PER REUNION_GUST REUNION_GUST_PER USA_SEAHGT USA_SEARAD_NE USA_SEARAD_SE USA_SEARAD_SW USA_SEARAD_NW STORM_SPEED STORM_DIR
2004238N13154 2004 61 WP MM NOT_NAMED 2004-08-25 06:00:00 NR 13.0000 154.000 main 1792 1787 O_____________ jtwc_wp WP212004 13.0000 154.000 DB 15 1006 -3 4 268
2004238N13154 2004 61 WP MM NOT_NAMED 2004-08-25 09:00:00 NR 12.9925 153.808 main 1787 1784 P_____________ WP212004 12.9925 153.808 DB 15 1006 -3 4 270
2004238N13154 2004 61 WP MM NOT_NAMED 2004-08-25 12:00:00 NR 13.0000 153.600 main 1784 1780 O_____________ jtwc_wp WP212004 13.0000 153.600 DB 15 1006 -3 4 276
2004238N13154 2004 61 WP MM NOT_NAMED 2004-08-25 15:00:00 NR 13.0350 153.365 main 1780 1778 P_____________ WP212004 13.0350 153.365 DB 17 1005 -3 7 279
2004238N13154 2004 61 WP MM NOT_NAMED 2004-08-25 18:00:00 TS 13.1000 152.920 main 1783 1781 O_O___________ jtwc_wp WP212004 13.1000 153.100 DB 20 1004 -3 13.1000 152.200 1 29 1004 9 281
2004238N13154 2004 61 WP MM NOT_NAMED 2004-08-25 21:00:00 TS 13.1992 152.483 main 1790 1788 P_P___________ WP212004 13.1925 152.808 DB 20 1004 -3 13.2126 151.835 1 29 1004 9 284
2004238N13154 2004 61 WP MM NOT_NAMED 2004-08-26 00:00:00 TS 13.3000 152.071 main 1797 1792 O_O___________ jtwc_wp WP212004 13.3000 152.500 DB 20 1004 -3 13.3000 151.500 1 29 1004 8 283
2004238N13154 2004 61 WP MM NOT_NAMED 2004-08-26 03:00:00 TS 13.3750 151.710 main 1800 1794 P_P___________ WP212004 13.4000 152.200 DB 22 1003 -3 13.3500 151.220 1 29 1004 6 284
2004238N13154 2004 61 WP MM NOT_NAMED 2004-08-26 06:00:00 TS 13.4500 151.450 main 1805 1794 O_O___________ jtwc_wp WP212004 13.5000 151.900 TD 25 1002 -1 13.4000 151.000 1 29 1004 35 5 290
2004238N13154 2004 61 WP MM NOT_NAMED 2004-08-26 09:00:00 TS 13.5462 151.225 main 1797 1797 P_P___________ WP212004 13.6000 151.600 TD 27 1001 -1 13.4924 150.850 1 29 1004 5 295
2004238N13154 2004 61 WP MM NOT_NAMED 2004-08-26 12:00:00 TS 13.6500 151.000 main 1814 1803 O_O___________ jtwc_wp WP212004 13.7000 151.300 TD 30 1000 -1 13.6000 150.700 1 29 1004 40 5 292
2004238N13154 2004 61 WP MM NOT_NAMED 2004-08-26 15:00:00 TS 13.7425 150.732 main 1807 1807 P_P___________ WP212004 13.7924 151.007 TD 30 1000 -1 13.6925 150.457 1 29 1003 6 291
2004238N13154 2004 61 WP MM NOT_NAMED 2004-08-26 18:00:00 TS 13.8500 150.450 main 1824 1820 O_O___________ jtwc_wp WP212004 13.9000 150.700 TD 30 1000 -1 13.8000 150.200 1 29 1002 45 6 294
2004238N13154 2004 61 WP MM NOT_NAMED 2004-08-26 21:00:00 TS 13.9887 150.175 main 1829 1828 P_P___________ WP212004 14.0350 150.357 TD 30 1000 -1 13.9425 149.992 1 29 1001 6 299
2004238N13154 2004 61 WP MM NOT_NAMED 2004-08-27 00:00:00 TS 14.1500 149.900 main 1846 1835 O_O___________ jtwc_wp WP212004 14.2000 150.000 TD 30 1000 -1 14.1000 149.800 1 29 1000 45 6 301
2004238N13154 2004 61 WP MM NOT_NAMED 2004-08-27 03:00:00 TS 14.3099 149.632 main 1853 1853 P_P___________ WP212004 14.3774 149.665 TD 30 1000 -1 14.2425 149.600 1 29 1002 6 303
2004238N13154 2004 61 WP MM NOT_NAMED 2004-08-27 06:00:00 TS 14.5000 149.350 main 1872 1871 O_O___________ jtwc_wp WP212004 14.6000 149.300 TD 30 1000 -1 14.4000 149.400 1 29 1004 45 7 308
2004238N13154 2004 61 WP MM NOT_NAMED 2004-08-27 09:00:00 TS 14.7386 149.059 main 1891 1891 P_P___________ WP212004 14.8925 148.858 TD 30 1000 -1 14.5847 149.260 1 29 1004 8 309
2004238N13154 2004 61 WP MM NOT_NAMED 2004-08-27 12:00:00 TS 15.0000 148.700 main 1921 1920 O_O___________ jtwc_wp WP212004 15.2000 148.400 TD 30 1000 -1 14.8000 149.000 1 29 1004 40 9 303
2004238N13154 2004 61 WP MM NOT_NAMED 2004-08-27 15:00:00 TS 15.2499 148.252 main 1940 1940 P_P___________ WP212004 15.4721 148.030 TD 30 1000 -1 15.0276 148.475 1 29 1004 11 297
2004238N13154 2004 61 WP MM NOT_NAMED 2004-08-27 18:00:00 TS 15.5000 147.700 main 1971 1971 O_O___________ jtwc_wp WP212004 15.7000 147.600 TD 30 1000 -1 15.3000 147.800 1 29 1004 13 294
2004238N13154 2004 61 WP MM NOT_NAMED 2004-08-27 21:00:00 TS 15.7878 147.014 main 2005 2005 P_P___________ WP212004 15.8953 146.958 TD 27 1001 -1 15.6803 147.071 1 26 1005 14 291
2004238N13154 2004 61 WP MM NOT_NAMED 2004-08-28 00:00:00 TS 16.0000 146.350 main 2027 2027 O_O___________ jtwc_wp WP212004 16.0000 146.300 TD 25 1002 -1 16.0000 146.400 1 23 1006 40 11 283
2004238N13154 2004 61 WP MM NOT_NAMED 2004-08-28 03:00:00 TS 16.0498 145.866 main 2029 2029 P_P___________ WP212004 15.9848 145.797 TD 22 1003 -1 16.1148 145.935 1 23 1006 8 270
2004238N13154 2004 61 WP MM NOT_NAMED 2004-08-28 06:00:00 TS 16.0000 145.500 main 2031 O_O___________ jtwc_wp WP212004 15.9000 145.400 TD 20 1004 -1 16.1000 145.600 1 23 1006 30 7 262

Digital Typhoon Data and Search

About IBTrACS Database

This database is a web-friendly format of International Best Track Archive for Climate Stewardship (IBTrACS), a global best track data archive curated by NOAA dating back to 1842.

Updated: 2021-10-08